createdAt,value
2019-02-20T00:08:32.753Z,101079.80
2019-02-20T00:18:38.745Z,101091.63
2019-02-20T00:28:44.676Z,101085.38
2019-02-20T00:38:50.591Z,101088.25
2019-02-20T00:48:58.004Z,101100.05
2019-02-20T00:59:03.922Z,101106.91
2019-02-20T01:09:09.798Z,101115.44
2019-02-20T01:19:15.840Z,101122.28
2019-02-20T01:29:21.630Z,101126.45
2019-02-20T01:39:27.696Z,101115.53
2019-02-20T01:49:34.110Z,101106.03
2019-02-20T01:59:40.440Z,101123.12
2019-02-20T02:09:46.453Z,101119.64
2019-02-20T02:19:52.295Z,101119.77
2019-02-20T02:29:58.293Z,101114.13
2019-02-20T02:40:07.466Z,101119.66
2019-02-20T02:50:13.203Z,101129.19
2019-02-20T03:00:19.403Z,101141.73
2019-02-20T03:10:25.482Z,101138.04
2019-02-20T03:20:31.375Z,101143.41
2019-02-20T03:30:37.092Z,101155.23
2019-02-20T03:40:43.021Z,101149.67
2019-02-20T03:50:55.877Z,101166.94
2019-02-20T04:01:01.571Z,101162.87
2019-02-20T04:11:07.372Z,101163.28
2019-02-20T04:21:13.520Z,101159.34
2019-02-20T04:31:19.381Z,101161.99
2019-02-20T04:41:25.533Z,101166.27
2019-02-20T04:51:31.236Z,101167.80
2019-02-20T05:01:37.512Z,101158.53
2019-02-20T05:11:43.567Z,101169.80
2019-02-20T05:21:49.324Z,101160.70
2019-02-20T05:31:55.337Z,101171.69
2019-02-20T05:42:01.302Z,101164.23
2019-02-20T05:52:07.116Z,101179.47
2019-02-20T06:02:14.395Z,101189.16
2019-02-20T06:12:20.288Z,101197.16
2019-02-20T06:22:26.028Z,101214.44
2019-02-20T06:32:32.007Z,101224.69
2019-02-20T06:42:37.957Z,101239.05
2019-02-20T06:52:45.559Z,101240.87
2019-02-20T07:02:51.249Z,101243.25
2019-02-20T07:13:00.181Z,101248.52
2019-02-20T07:23:21.352Z,101247.84
2019-02-20T07:33:27.285Z,101273.41
2019-02-20T07:43:33.432Z,101281.64
2019-02-20T07:53:39.196Z,101313.63
2019-02-20T08:03:45.046Z,101342.90
2019-02-20T08:13:50.810Z,101349.19
2019-02-20T08:23:56.501Z,101367.02
2019-02-20T08:34:02.229Z,101366.41
2019-02-20T08:44:10.379Z,101394.28
2019-02-20T08:54:16.168Z,101396.05
2019-02-20T09:04:21.877Z,101408.51
2019-02-20T09:14:29.412Z,101423.80
2019-02-20T09:24:35.118Z,101429.56
2019-02-20T09:34:40.880Z,101449.59
2019-02-20T09:44:47.027Z,101449.59
2019-02-20T09:54:52.834Z,101453.02
2019-02-20T10:04:58.529Z,101465.52
2019-02-20T10:15:12.349Z,101473.04
2019-02-20T10:25:18.127Z,101478.83
2019-02-20T10:35:23.725Z,101473.16
2019-02-20T10:45:29.415Z,101483.12
2019-02-20T10:55:35.221Z,101492.91
2019-02-20T11:05:41.034Z,101497.50
2019-02-20T11:15:46.907Z,101503.91
2019-02-20T11:25:52.544Z,101493.92
2019-02-20T11:35:59.604Z,101507.65
2019-02-20T11:46:05.871Z,101508.97
2019-02-20T11:56:12.353Z,101495.89
2019-02-20T12:06:18.305Z,101488.93
2019-02-20T12:16:24.208Z,101486.57
2019-02-20T12:26:35.140Z,101490.83
2019-02-20T12:36:37.357Z,101489.16
2019-02-20T12:46:43.152Z,101486.09
2019-02-20T12:56:48.955Z,101488.39
2019-02-20T13:06:59.579Z,101492.66
2019-02-20T13:17:02.105Z,101485.19
2019-02-20T13:27:10.268Z,101506.08
2019-02-20T13:37:17.629Z,101506.88
2019-02-20T13:47:25.809Z,101518.30
2019-02-20T13:57:31.899Z,101518.08
2019-02-20T14:07:39.493Z,101525.05
2019-02-20T14:17:45.310Z,101536.93
2019-02-20T14:27:51.191Z,101541.39
2019-02-20T14:37:59.635Z,101542.78
2019-02-20T14:48:05.490Z,101541.02
2019-02-20T14:58:11.230Z,101542.25
2019-02-20T15:08:17.709Z,101543.11
2019-02-20T15:18:23.525Z,101556.91
2019-02-20T15:28:29.313Z,101558.45
2019-02-20T15:38:35.453Z,101563.44
2019-02-20T15:48:55.877Z,101590.67
2019-02-20T15:59:01.671Z,101586.41
2019-02-20T16:09:08.546Z,101590.52
2019-02-20T16:19:15.853Z,101597.26
2019-02-20T16:29:21.657Z,101605.55
2019-02-20T16:39:27.811Z,101614.52
2019-02-20T16:49:33.663Z,101618.78
2019-02-20T16:59:39.385Z,101634.75
2019-02-20T17:09:45.260Z,101648.02
2019-02-20T17:19:51.113Z,101652.48
2019-02-20T17:29:57.450Z,101665.88
2019-02-20T17:40:03.077Z,101668.57
2019-02-20T17:50:11.688Z,101676.23
2019-02-20T18:00:20.600Z,101683.22
2019-02-20T18:10:26.229Z,101684.49
2019-02-20T18:20:32.060Z,101698.79
2019-02-20T18:30:38.013Z,101702.40
2019-02-20T18:40:46.154Z,101718.22
2019-02-20T18:50:53.186Z,101712.31
2019-02-20T19:00:59.213Z,101713.55
2019-02-20T19:11:08.206Z,101719.61
2019-02-20T19:21:33.926Z,101734.69
2019-02-20T19:31:42.693Z,101729.41
2019-02-20T19:42:00.511Z,101747.25
2019-02-20T19:52:32.390Z,101751.98
2019-02-20T20:02:47.121Z,101762.39
2019-02-20T20:13:24.927Z,101767.31
2019-02-20T20:23:50.177Z,101773.33
2019-02-20T20:34:05.078Z,101779.56
2019-02-20T20:44:29.546Z,101780.27
2019-02-20T20:54:44.865Z,101781.52
2019-02-20T21:05:14.834Z,101778.41
2019-02-20T21:15:26.586Z,101780.83
2019-02-20T21:26:09.575Z,101774.00
2019-02-20T21:36:18.592Z,101765.77
2019-02-20T21:46:45.187Z,101776.75
2019-02-20T21:56:57.637Z,101770.13
2019-02-20T22:07:40.921Z,101776.08
2019-02-20T22:17:58.660Z,101776.31
2019-02-20T22:28:14.383Z,101773.30
2019-02-20T22:38:29.301Z,101767.58
2019-02-20T22:48:41.260Z,101760.77
2019-02-20T22:59:11.851Z,101775.03
2019-02-20T23:09:44.579Z,101764.16
2019-02-20T23:19:50.434Z,101763.81
2019-02-20T23:29:56.482Z,101764.92
2019-02-20T23:40:04.652Z,101777.23
2019-02-20T23:50:09.524Z,101781.68
